sensor_id;sensor_type;location;lat;lon;timestamp;temperature;humidity
18207;DHT22;9229;52.354;20.886;2023-03-14T00:02:40;10.70;99.90
18207;DHT22;9229;52.354;20.886;2023-03-14T00:07:43;10.60;99.90
18207;DHT22;9229;52.354;20.886;2023-03-14T00:12:47;10.60;99.90
18207;DHT22;9229;52.354;20.886;2023-03-14T00:17:50;10.60;99.90
18207;DHT22;9229;52.354;20.886;2023-03-14T00:23:26;10.40;99.90
18207;DHT22;9229;52.354;20.886;2023-03-14T00:28:30;10.50;99.90
18207;DHT22;9229;52.354;20.886;2023-03-14T00:33:32;10.50;99.90
18207;DHT22;9229;52.354;20.886;2023-03-14T00:38:36;10.50;99.90
18207;DHT22;9229;52.354;20.886;2023-03-14T00:43:41;10.50;99.90
18207;DHT22;9229;52.354;20.886;2023-03-14T00:48:44;10.60;99.90
18207;DHT22;9229;52.354;20.886;2023-03-14T00:53:47;10.60;99.90
18207;DHT22;9229;52.354;20.886;2023-03-14T00:58:53;10.60;99.90
18207;DHT22;9229;52.354;20.886;2023-03-14T01:03:55;10.60;99.90
18207;DHT22;9229;52.354;20.886;2023-03-14T01:08:58;10.60;99.90
18207;DHT22;9229;52.354;20.886;2023-03-14T01:14:03;10.60;99.90
18207;DHT22;9229;52.354;20.886;2023-03-14T01:19:06;10.50;99.90
18207;DHT22;9229;52.354;20.886;2023-03-14T01:24:11;10.40;99.90
18207;DHT22;9229;52.354;20.886;2023-03-14T01:29:15;10.40;99.90
18207;DHT22;9229;52.354;20.886;2023-03-14T01:34:18;10.30;99.90
18207;DHT22;9229;52.354;20.886;2023-03-14T01:39:20;10.20;99.90
18207;DHT22;9229;52.354;20.886;2023-03-14T01:44:26;10.10;99.90
18207;DHT22;9229;52.354;20.886;2023-03-14T01:49:30;10.00;99.90
18207;DHT22;9229;52.354;20.886;2023-03-14T01:55:05;9.80;99.90
18207;DHT22;9229;52.354;20.886;2023-03-14T02:00:13;9.80;99.90
18207;DHT22;9229;52.354;20.886;2023-03-14T02:05:17;9.70;99.90
18207;DHT22;9229;52.354;20.886;2023-03-14T02:10:26;9.60;99.90
18207;DHT22;9229;52.354;20.886;2023-03-14T02:15:32;9.60;99.90
18207;DHT22;9229;52.354;20.886;2023-03-14T02:20:48;9.40;99.90
18207;DHT22;9229;52.354;20.886;2023-03-14T02:25:57;9.30;99.90
18207;DHT22;9229;52.354;20.886;2023-03-14T02:31:03;9.30;99.90
18207;DHT22;9229;52.354;20.886;2023-03-14T02:36:11;9.20;99.90
18207;DHT22;9229;52.354;20.886;2023-03-14T02:41:15;9.20;99.90
18207;DHT22;9229;52.354;20.886;2023-03-14T02:46:26;9.20;99.90
18207;DHT22;9229;52.354;20.886;2023-03-14T02:51:29;9.20;99.90
18207;DHT22;9229;52.354;20.886;2023-03-14T02:56:31;9.10;99.90
18207;DHT22;9229;52.354;20.886;2023-03-14T03:01:36;9.00;99.90
18207;DHT22;9229;52.354;20.886;2023-03-14T03:06:39;8.80;99.90
18207;DHT22;9229;52.354;20.886;2023-03-14T03:11:41;8.80;99.90
18207;DHT22;9229;52.354;20.886;2023-03-14T03:16:50;8.60;99.90
18207;DHT22;9229;52.354;20.886;2023-03-14T03:21:52;8.50;99.90
18207;DHT22;9229;52.354;20.886;2023-03-14T03:26:54;8.40;99.90
18207;DHT22;9229;52.354;20.886;2023-03-14T03:31:58;8.40;99.90
18207;DHT22;9229;52.354;20.886;2023-03-14T03:37:00;8.30;99.90
18207;DHT22;9229;52.354;20.886;2023-03-14T03:42:06;8.20;99.90
18207;DHT22;9229;52.354;20.886;2023-03-14T03:47:10;8.10;99.90
18207;DHT22;9229;52.354;20.886;2023-03-14T03:52:13;8.10;99.90
18207;DHT22;9229;52.354;20.886;2023-03-14T03:57:15;8.00;99.90
18207;DHT22;9229;52.354;20.886;2023-03-14T04:02:18;8.00;99.90
18207;DHT22;9229;52.354;20.886;2023-03-14T04:07:20;8.00;99.90
18207;DHT22;9229;52.354;20.886;2023-03-14T04:12:24;7.90;99.90
18207;DHT22;9229;52.354;20.886;2023-03-14T04:17:39;7.90;99.90
18207;DHT22;9229;52.354;20.886;2023-03-14T04:22:43;7.80;99.90
18207;DHT22;9229;52.354;20.886;2023-03-14T04:27:47;7.80;99.90
18207;DHT22;9229;52.354;20.886;2023-03-14T04:33:03;7.80;99.90
18207;DHT22;9229;52.354;20.886;2023-03-14T04:38:09;7.80;99.90
18207;DHT22;9229;52.354;20.886;2023-03-14T04:43:11;7.80;99.90
18207;DHT22;9229;52.354;20.886;2023-03-14T04:48:29;7.80;99.90
18207;DHT22;9229;52.354;20.886;2023-03-14T04:53:33;7.80;99.90
18207;DHT22;9229;52.354;20.886;2023-03-14T04:58:39;7.80;99.90
18207;DHT22;9229;52.354;20.886;2023-03-14T05:03:43;7.90;99.90
18207;DHT22;9229;52.354;20.886;2023-03-14T05:08:52;7.90;99.90
18207;DHT22;9229;52.354;20.886;2023-03-14T05:14:13;8.00;99.90
18207;DHT22;9229;52.354;20.886;2023-03-14T05:19:32;8.10;99.90
18207;DHT22;9229;52.354;20.886;2023-03-14T05:24:53;8.30;99.90
18207;DHT22;9229;52.354;20.886;2023-03-14T05:30:16;8.40;99.90
18207;DHT22;9229;52.354;20.886;2023-03-14T05:35:40;8.50;99.90
18207;DHT22;9229;52.354;20.886;2023-03-14T05:41:11;8.60;99.90
18207;DHT22;9229;52.354;20.886;2023-03-14T05:46:28;8.60;99.90
18207;DHT22;9229;52.354;20.886;2023-03-14T05:52:02;8.60;99.90
18207;DHT22;9229;52.354;20.886;2023-03-14T05:57:20;8.80;99.90
18207;DHT22;9229;52.354;20.886;2023-03-14T06:02:46;8.80;99.90
18207;DHT22;9229;52.354;20.886;2023-03-14T06:07:57;9.00;99.90
18207;DHT22;9229;52.354;20.886;2023-03-14T06:13:01;9.10;99.90
18207;DHT22;9229;52.354;20.886;2023-03-14T06:18:06;9.20;99.90
18207;DHT22;9229;52.354;20.886;2023-03-14T06:23:12;9.30;99.90
18207;DHT22;9229;52.354;20.886;2023-03-14T06:28:14;9.30;99.90
18207;DHT22;9229;52.354;20.886;2023-03-14T06:33:16;9.30;99.90
18207;DHT22;9229;52.354;20.886;2023-03-14T06:38:20;9.20;99.90
18207;DHT22;9229;52.354;20.886;2023-03-14T06:43:26;9.40;99.90
18207;DHT22;9229;52.354;20.886;2023-03-14T06:48:29;9.80;99.90
18207;DHT22;9229;52.354;20.886;2023-03-14T06:53:34;10.20;99.90
18207;DHT22;9229;52.354;20.886;2023-03-14T06:58:38;10.70;99.90
18207;DHT22;9229;52.354;20.886;2023-03-14T07:03:43;11.10;99.90
18207;DHT22;9229;52.354;20.886;2023-03-14T07:08:47;11.40;99.90
18207;DHT22;9229;52.354;20.886;2023-03-14T07:13:51;11.60;99.90
18207;DHT22;9229;52.354;20.886;2023-03-14T07:18:55;11.60;99.90
18207;DHT22;9229;52.354;20.886;2023-03-14T07:23:59;11.60;99.90
18207;DHT22;9229;52.354;20.886;2023-03-14T07:29:02;11.70;99.90
18207;DHT22;9229;52.354;20.886;2023-03-14T07:34:06;11.90;99.90
18207;DHT22;9229;52.354;20.886;2023-03-14T07:39:20;12.10;99.90
18207;DHT22;9229;52.354;20.886;2023-03-14T07:44:40;12.40;99.60
18207;DHT22;9229;52.354;20.886;2023-03-14T07:49:43;12.60;99.30
18207;DHT22;9229;52.354;20.886;2023-03-14T07:54:46;12.90;98.70
18207;DHT22;9229;52.354;20.886;2023-03-14T07:59:49;13.20;97.90
18207;DHT22;9229;52.354;20.886;2023-03-14T08:04:52;13.70;97.40
18207;DHT22;9229;52.354;20.886;2023-03-14T08:09:58;14.30;95.60
18207;DHT22;9229;52.354;20.886;2023-03-14T08:14:59;14.70;95.20
18207;DHT22;9229;52.354;20.886;2023-03-14T08:20:03;15.10;93.70
18207;DHT22;9229;52.354;20.886;2023-03-14T08:25:13;15.20;93.00
18207;DHT22;9229;52.354;20.886;2023-03-14T08:30:17;15.10;92.30
18207;DHT22;9229;52.354;20.886;2023-03-14T08:35:19;15.10;91.80
18207;DHT22;9229;52.354;20.886;2023-03-14T08:40:23;15.00;91.50
18207;DHT22;9229;52.354;20.886;2023-03-14T08:45:25;15.10;91.50
18207;DHT22;9229;52.354;20.886;2023-03-14T08:50:27;15.20;91.10
18207;DHT22;9229;52.354;20.886;2023-03-14T08:55:32;15.40;90.40
18207;DHT22;9229;52.354;20.886;2023-03-14T09:00:34;15.50;90.20
18207;DHT22;9229;52.354;20.886;2023-03-14T09:05:36;15.50;89.90
18207;DHT22;9229;52.354;20.886;2023-03-14T09:10:39;15.60;89.90
18207;DHT22;9229;52.354;20.886;2023-03-14T09:15:41;16.20;87.40
18207;DHT22;9229;52.354;20.886;2023-03-14T09:20:43;16.70;86.40
18207;DHT22;9229;52.354;20.886;2023-03-14T09:25:54;16.50;83.60
18207;DHT22;9229;52.354;20.886;2023-03-14T09:31:04;16.30;84.80
18207;DHT22;9229;52.354;20.886;2023-03-14T09:36:07;16.10;84.30
18207;DHT22;9229;52.354;20.886;2023-03-14T09:41:17;15.90;84.70
18207;DHT22;9229;52.354;20.886;2023-03-14T09:46:19;15.70;84.70
18207;DHT22;9229;52.354;20.886;2023-03-14T09:51:22;15.60;85.40
18207;DHT22;9229;52.354;20.886;2023-03-14T09:56:29;15.60;85.20
18207;DHT22;9229;52.354;20.886;2023-03-14T10:01:33;15.70;84.90
18207;DHT22;9229;52.354;20.886;2023-03-14T10:06:36;16.10;84.40
18207;DHT22;9229;52.354;20.886;2023-03-14T10:11:40;16.60;83.30
18207;DHT22;9229;52.354;20.886;2023-03-14T10:16:44;17.00;81.70
18207;DHT22;9229;52.354;20.886;2023-03-14T10:21:52;17.10;80.90
18207;DHT22;9229;52.354;20.886;2023-03-14T10:26:59;17.60;81.20
18207;DHT22;9229;52.354;20.886;2023-03-14T10:32:05;17.60;80.40
18207;DHT22;9229;52.354;20.886;2023-03-14T10:37:17;17.90;79.20
18207;DHT22;9229;52.354;20.886;2023-03-14T10:42:25;18.10;78.50
18207;DHT22;9229;52.354;20.886;2023-03-14T10:47:32;18.30;77.60
18207;DHT22;9229;52.354;20.886;2023-03-14T10:52:34;19.20;74.90
18207;DHT22;9229;52.354;20.886;2023-03-14T10:57:44;19.60;72.60
18207;DHT22;9229;52.354;20.886;2023-03-14T11:02:57;20.00;72.20
18207;DHT22;9229;52.354;20.886;2023-03-14T11:08:02;19.50;72.00
18207;DHT22;9229;52.354;20.886;2023-03-14T11:13:16;18.60;72.90
18207;DHT22;9229;52.354;20.886;2023-03-14T11:24:13;17.40;76.00
18207;DHT22;9229;52.354;20.886;2023-03-14T11:29:28;16.80;77.20
18207;DHT22;9229;52.354;20.886;2023-03-14T11:34:38;16.40;78.40
18207;DHT22;9229;52.354;20.886;2023-03-14T11:39:44;16.00;79.30
18207;DHT22;9229;52.354;20.886;2023-03-14T11:44:49;16.00;80.00
18207;DHT22;9229;52.354;20.886;2023-03-14T11:49:56;16.60;80.20
18207;DHT22;9229;52.354;20.886;2023-03-14T11:55:05;17.00;79.20
18207;DHT22;9229;52.354;20.886;2023-03-14T12:00:16;17.00;78.20
18207;DHT22;9229;52.354;20.886;2023-03-14T12:05:37;16.70;79.30
18207;DHT22;9229;52.354;20.886;2023-03-14T12:10:44;16.40;79.40
18207;DHT22;9229;52.354;20.886;2023-03-14T12:15:54;16.30;79.80
18207;DHT22;9229;52.354;20.886;2023-03-14T12:20:59;16.30;80.40
18207;DHT22;9229;52.354;20.886;2023-03-14T12:26:14;16.20;80.80
18207;DHT22;9229;52.354;20.886;2023-03-14T12:31:40;16.00;81.20
18207;DHT22;9229;52.354;20.886;2023-03-14T12:36:54;15.60;82.40
18207;DHT22;9229;52.354;20.886;2023-03-14T12:42:02;15.30;83.90
18207;DHT22;9229;52.354;20.886;2023-03-14T12:52:42;15.00;87.50
18207;DHT22;9229;52.354;20.886;2023-03-14T12:57:53;14.10;92.60
18207;DHT22;9229;52.354;20.886;2023-03-14T13:03:02;13.70;94.70
18207;DHT22;9229;52.354;20.886;2023-03-14T13:08:32;13.20;96.90
18207;DHT22;9229;52.354;20.886;2023-03-14T13:13:37;13.00;99.20
18207;DHT22;9229;52.354;20.886;2023-03-14T13:18:49;12.80;99.90
18207;DHT22;9229;52.354;20.886;2023-03-14T13:23:58;12.80;99.90
18207;DHT22;9229;52.354;20.886;2023-03-14T13:29:09;12.80;99.90
18207;DHT22;9229;52.354;20.886;2023-03-14T13:34:11;12.70;99.90
18207;DHT22;9229;52.354;20.886;2023-03-14T13:39:18;12.50;99.90
18207;DHT22;9229;52.354;20.886;2023-03-14T13:44:26;12.50;99.90
18207;DHT22;9229;52.354;20.886;2023-03-14T13:49:30;12.50;99.90
18207;DHT22;9229;52.354;20.886;2023-03-14T13:54:38;12.60;99.90
18207;DHT22;9229;52.354;20.886;2023-03-14T13:59:41;12.50;99.90
18207;DHT22;9229;52.354;20.886;2023-03-14T14:04:43;12.30;99.90
18207;DHT22;9229;52.354;20.886;2023-03-14T14:09:49;12.10;99.90
18207;DHT22;9229;52.354;20.886;2023-03-14T14:14:55;11.90;99.90
18207;DHT22;9229;52.354;20.886;2023-03-14T14:20:00;11.80;99.90
18207;DHT22;9229;52.354;20.886;2023-03-14T14:25:06;11.60;99.90
18207;DHT22;9229;52.354;20.886;2023-03-14T14:30:26;11.40;99.90
18207;DHT22;9229;52.354;20.886;2023-03-14T14:35:32;11.30;99.90
18207;DHT22;9229;52.354;20.886;2023-03-14T14:40:43;11.20;99.90
18207;DHT22;9229;52.354;20.886;2023-03-14T14:45:48;11.20;99.90
18207;DHT22;9229;52.354;20.886;2023-03-14T14:50:57;11.10;99.90
18207;DHT22;9229;52.354;20.886;2023-03-14T14:56:06;11.10;99.90
18207;DHT22;9229;52.354;20.886;2023-03-14T15:01:11;11.20;99.90
18207;DHT22;9229;52.354;20.886;2023-03-14T15:06:16;11.30;99.90
18207;DHT22;9229;52.354;20.886;2023-03-14T15:11:22;11.30;99.90
18207;DHT22;9229;52.354;20.886;2023-03-14T15:16:31;11.20;99.90
18207;DHT22;9229;52.354;20.886;2023-03-14T15:21:33;11.10;99.90
18207;DHT22;9229;52.354;20.886;2023-03-14T15:26:47;11.00;99.90
18207;DHT22;9229;52.354;20.886;2023-03-14T15:31:53;10.90;99.90
18207;DHT22;9229;52.354;20.886;2023-03-14T15:36:55;10.90;99.90
18207;DHT22;9229;52.354;20.886;2023-03-14T15:42:01;10.90;99.90
18207;DHT22;9229;52.354;20.886;2023-03-14T15:47:03;10.80;99.90
18207;DHT22;9229;52.354;20.886;2023-03-14T15:52:07;10.80;99.90
18207;DHT22;9229;52.354;20.886;2023-03-14T15:57:13;10.70;99.90
18207;DHT22;9229;52.354;20.886;2023-03-14T16:02:14;10.70;99.90
18207;DHT22;9229;52.354;20.886;2023-03-14T16:07:16;10.70;99.90
18207;DHT22;9229;52.354;20.886;2023-03-14T16:12:20;10.60;99.90
18207;DHT22;9229;52.354;20.886;2023-03-14T16:17:22;10.60;99.90
18207;DHT22;9229;52.354;20.886;2023-03-14T16:22:24;10.60;99.90
18207;DHT22;9229;52.354;20.886;2023-03-14T16:27:27;10.50;99.90
18207;DHT22;9229;52.354;20.886;2023-03-14T16:32:31;10.50;99.90
18207;DHT22;9229;52.354;20.886;2023-03-14T16:37:33;10.50;99.90
18207;DHT22;9229;52.354;20.886;2023-03-14T16:42:36;10.40;99.90
18207;DHT22;9229;52.354;20.886;2023-03-14T16:47:38;10.40;99.90
18207;DHT22;9229;52.354;20.886;2023-03-14T16:52:42;10.40;99.90
18207;DHT22;9229;52.354;20.886;2023-03-14T16:57:48;10.30;99.90
18207;DHT22;9229;52.354;20.886;2023-03-14T17:02:50;10.30;99.90
18207;DHT22;9229;52.354;20.886;2023-03-14T17:07:53;10.30;99.90
18207;DHT22;9229;52.354;20.886;2023-03-14T17:12:57;10.30;99.90
18207;DHT22;9229;52.354;20.886;2023-03-14T17:18:00;10.30;99.90
18207;DHT22;9229;52.354;20.886;2023-03-14T17:23:05;10.30;99.90
18207;DHT22;9229;52.354;20.886;2023-03-14T17:28:10;10.30;99.90
18207;DHT22;9229;52.354;20.886;2023-03-14T17:33:14;10.20;99.90
18207;DHT22;9229;52.354;20.886;2023-03-14T17:38:30;10.30;99.90
18207;DHT22;9229;52.354;20.886;2023-03-14T17:43:39;10.30;99.90
18207;DHT22;9229;52.354;20.886;2023-03-14T17:48:49;10.40;99.90
18207;DHT22;9229;52.354;20.886;2023-03-14T17:53:51;10.40;99.90
18207;DHT22;9229;52.354;20.886;2023-03-14T17:58:55;10.50;99.90
18207;DHT22;9229;52.354;20.886;2023-03-14T18:03:57;10.50;99.90
18207;DHT22;9229;52.354;20.886;2023-03-14T18:09:00;10.50;99.90
18207;DHT22;9229;52.354;20.886;2023-03-14T18:14:06;10.50;99.90
18207;DHT22;9229;52.354;20.886;2023-03-14T18:19:08;10.60;99.90
18207;DHT22;9229;52.354;20.886;2023-03-14T18:24:10;10.60;99.90
18207;DHT22;9229;52.354;20.886;2023-03-14T18:29:17;10.60;99.90
18207;DHT22;9229;52.354;20.886;2023-03-14T18:34:20;10.70;99.90
18207;DHT22;9229;52.354;20.886;2023-03-14T18:39:21;10.70;99.90
18207;DHT22;9229;52.354;20.886;2023-03-14T18:44:25;10.70;99.90
18207;DHT22;9229;52.354;20.886;2023-03-14T18:49:28;10.70;99.90
18207;DHT22;9229;52.354;20.886;2023-03-14T18:54:33;10.70;99.90
18207;DHT22;9229;52.354;20.886;2023-03-14T18:59:44;10.70;99.90
18207;DHT22;9229;52.354;20.886;2023-03-14T19:04:47;10.60;99.90
18207;DHT22;9229;52.354;20.886;2023-03-14T19:10:01;10.60;99.90
18207;DHT22;9229;52.354;20.886;2023-03-14T19:15:10;10.60;99.90
18207;DHT22;9229;52.354;20.886;2023-03-14T19:26:01;10.50;99.90
18207;DHT22;9229;52.354;20.886;2023-03-14T19:37:15;10.30;99.90
18207;DHT22;9229;52.354;20.886;2023-03-14T19:42:24;10.30;99.90
18207;DHT22;9229;52.354;20.886;2023-03-14T19:47:31;10.30;99.90
18207;DHT22;9229;52.354;20.886;2023-03-14T19:52:34;10.30;99.90
18207;DHT22;9229;52.354;20.886;2023-03-14T19:57:39;10.20;99.90
18207;DHT22;9229;52.354;20.886;2023-03-14T20:02:42;10.20;99.90
18207;DHT22;9229;52.354;20.886;2023-03-14T20:07:46;10.10;99.90
18207;DHT22;9229;52.354;20.886;2023-03-14T20:12:50;10.10;99.90
18207;DHT22;9229;52.354;20.886;2023-03-14T20:17:52;10.00;99.90
18207;DHT22;9229;52.354;20.886;2023-03-14T20:22:56;10.00;99.90
18207;DHT22;9229;52.354;20.886;2023-03-14T20:27:58;10.00;99.90
18207;DHT22;9229;52.354;20.886;2023-03-14T20:33:01;9.90;99.90
18207;DHT22;9229;52.354;20.886;2023-03-14T20:38:05;9.90;99.90
18207;DHT22;9229;52.354;20.886;2023-03-14T20:43:09;9.80;99.90
18207;DHT22;9229;52.354;20.886;2023-03-14T20:48:14;9.70;99.90
18207;DHT22;9229;52.354;20.886;2023-03-14T20:53:18;9.70;99.90
18207;DHT22;9229;52.354;20.886;2023-03-14T20:58:21;9.70;99.90
18207;DHT22;9229;52.354;20.886;2023-03-14T21:03:25;9.70;99.90
18207;DHT22;9229;52.354;20.886;2023-03-14T21:08:32;9.60;99.90
18207;DHT22;9229;52.354;20.886;2023-03-14T21:13:34;9.60;99.90
18207;DHT22;9229;52.354;20.886;2023-03-14T21:18:39;9.60;99.90
18207;DHT22;9229;52.354;20.886;2023-03-14T21:23:43;9.60;99.90
18207;DHT22;9229;52.354;20.886;2023-03-14T21:28:46;9.60;99.90
18207;DHT22;9229;52.354;20.886;2023-03-14T21:33:49;9.50;99.90
18207;DHT22;9229;52.354;20.886;2023-03-14T21:38:52;9.60;99.90
18207;DHT22;9229;52.354;20.886;2023-03-14T21:43:54;9.60;99.90
18207;DHT22;9229;52.354;20.886;2023-03-14T21:48:56;9.60;99.90
18207;DHT22;9229;52.354;20.886;2023-03-14T21:54:00;9.60;99.90
18207;DHT22;9229;52.354;20.886;2023-03-14T21:59:10;9.60;99.90
18207;DHT22;9229;52.354;20.886;2023-03-14T22:04:14;9.70;99.90
18207;DHT22;9229;52.354;20.886;2023-03-14T22:09:18;9.70;99.90
18207;DHT22;9229;52.354;20.886;2023-03-14T22:14:22;9.80;99.90
18207;DHT22;9229;52.354;20.886;2023-03-14T22:19:26;9.70;99.90
18207;DHT22;9229;52.354;20.886;2023-03-14T22:24:29;9.70;99.90
18207;DHT22;9229;52.354;20.886;2023-03-14T22:29:31;9.80;99.90
18207;DHT22;9229;52.354;20.886;2023-03-14T22:34:34;9.80;99.90
18207;DHT22;9229;52.354;20.886;2023-03-14T22:39:40;9.80;99.90
18207;DHT22;9229;52.354;20.886;2023-03-14T22:44:42;9.80;99.90
18207;DHT22;9229;52.354;20.886;2023-03-14T22:49:44;9.80;99.90
18207;DHT22;9229;52.354;20.886;2023-03-14T22:54:48;9.80;99.90
18207;DHT22;9229;52.354;20.886;2023-03-14T22:59:50;9.90;99.90
18207;DHT22;9229;52.354;20.886;2023-03-14T23:04:52;9.90;99.90
18207;DHT22;9229;52.354;20.886;2023-03-14T23:09:55;9.90;99.90
18207;DHT22;9229;52.354;20.886;2023-03-14T23:14:57;9.90;99.90
18207;DHT22;9229;52.354;20.886;2023-03-14T23:19:59;9.80;99.90
18207;DHT22;9229;52.354;20.886;2023-03-14T23:25:04;9.80;99.90
18207;DHT22;9229;52.354;20.886;2023-03-14T23:30:08;9.80;99.90
18207;DHT22;9229;52.354;20.886;2023-03-14T23:35:13;9.70;99.90
18207;DHT22;9229;52.354;20.886;2023-03-14T23:40:17;9.70;99.90
18207;DHT22;9229;52.354;20.886;2023-03-14T23:45:19;9.60;99.90
18207;DHT22;9229;52.354;20.886;2023-03-14T23:50:21;9.70;99.90
18207;DHT22;9229;52.354;20.886;2023-03-14T23:55:25;9.60;99.90
